Time;durP1;ratioP1;P1;durP2;ratioP2;P2;SDS_P1;SDS_P2;PMS_P1;PMS_P2;Temp;Humidity;BMP_temperature;BMP_pressure;BME280_temperature;BME280_humidity;BME280_pressure;Samples;Min_cycle;Max_cycle;Signal;HPM_P1;HPM_P2
2021/12/05 00:23:08;;;;;;;24.27;13.88;;;;;;;;;;4972461;28;20367;-75
2021/12/05 00:25:36;;;;;;;24.90;12.68;;;;;;;;;;4972848;28;20042;-73
2021/12/05 01:02:50;;;;;;;20.83;10.38;;;;;;;;;;5008886;28;20556;-71
2021/12/05 01:15:57;;;;;;;15.52;8.38;;;;;;;;;;4975631;28;20089;-70
2021/12/05 01:18:24;;;;;;;15.70;9.02;;;;;;;;;;4975759;28;20031;-69
2021/12/05 01:20:56;;;;;;;14.68;9.23;;;;;;;;;;4966161;28;20022;-70
2021/12/05 01:26:19;;;;;;;16.20;8.60;;;;;;;;;;4995069;28;20342;-70
2021/12/05 01:29:04;;;;;;;15.98;8.65;;;;;;;;;;4993084;28;20078;-71
2021/12/05 01:34:39;;;;;;;17.17;8.45;;;;;;;;;;4993556;28;20038;-70
2021/12/05 02:12:14;;;;;;;14.50;7.70;;;;;;;;;;4955264;28;20035;-72
2021/12/05 02:36:53;;;;;;;18.27;9.48;;;;;;;;;;4966547;28;20040;-74
2021/12/05 02:41:56;;;;;;;15.20;8.35;;;;;;;;;;4935356;29;20070;-71
2021/12/05 02:44:24;;;;;;;16.48;9.05;;;;;;;;;;4934740;29;20090;-72
2021/12/05 02:47:00;;;;;;;15.82;8.45;;;;;;;;;;4968873;28;20570;-73
2021/12/05 02:49:29;;;;;;;13.48;7.70;;;;;;;;;;4939909;28;20460;-70
2021/12/05 02:51:59;;;;;;;18.65;7.63;;;;;;;;;;4953639;28;20042;-69
2021/12/05 02:54:31;;;;;;;14.43;7.32;;;;;;;;;;4955055;28;20443;-69
2021/12/05 02:56:58;;;;;;;16.55;7.85;;;;;;;;;;4954378;28;20038;-69
2021/12/05 03:01:58;;;;;;;21.00;8.75;;;;;;;;;;4984576;28;20031;-69
2021/12/05 03:04:29;;;;;;;14.40;8.60;;;;;;;;;;4934687;29;20101;-68
2021/12/05 03:06:56;;;;;;;13.18;8.13;;;;;;;;;;4935028;29;20039;-71
2021/12/05 03:09:24;;;;;;;17.80;9.65;;;;;;;;;;4966139;28;20118;-70
2021/12/05 03:11:51;;;;;;;15.32;8.10;;;;;;;;;;4934874;29;20042;-72
2021/12/05 03:14:18;;;;;;;16.67;8.93;;;;;;;;;;4935237;29;20047;-69
2021/12/05 03:16:44;;;;;;;16.63;8.13;;;;;;;;;;4933998;29;20043;-68
2021/12/05 03:19:12;;;;;;;12.98;8.25;;;;;;;;;;4965298;28;20031;-67
2021/12/05 03:21:41;;;;;;;15.57;9.10;;;;;;;;;;4968658;28;20038;-69
2021/12/05 03:24:09;;;;;;;15.05;8.13;;;;;;;;;;4985157;28;20023;-69
2021/12/05 03:26:38;;;;;;;17.45;8.65;;;;;;;;;;4984807;28;20502;-67
2021/12/05 03:29:06;;;;;;;18.58;9.15;;;;;;;;;;4984900;28;20047;-69
2021/12/05 03:31:33;;;;;;;16.63;8.85;;;;;;;;;;4984862;28;20036;-69
2021/12/05 03:34:04;;;;;;;15.25;9.13;;;;;;;;;;4984644;28;20055;-70
2021/12/05 03:36:32;;;;;;;15.55;8.18;;;;;;;;;;4985182;28;20082;-69
2021/12/05 03:38:59;;;;;;;15.52;8.98;;;;;;;;;;4984879;28;20023;-72
2021/12/05 03:41:25;;;;;;;15.88;8.45;;;;;;;;;;4953483;28;20220;-73
2021/12/05 03:43:55;;;;;;;19.92;9.57;;;;;;;;;;4984647;28;20392;-72
2021/12/05 03:46:21;;;;;;;21.35;8.45;;;;;;;;;;4985025;28;20041;-74
2021/12/05 03:48:57;;;;;;;19.30;8.15;;;;;;;;;;4951532;28;20030;-73
2021/12/05 03:51:25;;;;;;;12.45;7.00;;;;;;;;;;4984491;28;20058;-71
2021/12/05 03:53:52;;;;;;;15.50;8.80;;;;;;;;;;4984515;28;20027;-74
2021/12/05 03:56:20;;;;;;;15.38;8.30;;;;;;;;;;4983253;28;20035;-74
2021/12/05 03:58:48;;;;;;;17.25;8.13;;;;;;;;;;4952185;28;20019;-71
2021/12/05 04:01:15;;;;;;;15.77;7.68;;;;;;;;;;4952270;28;20497;-70
2021/12/05 04:03:44;;;;;;;14.45;8.32;;;;;;;;;;4951734;28;20118;-75
2021/12/05 04:06:14;;;;;;;18.98;8.88;;;;;;;;;;4952349;28;20057;-73
2021/12/05 04:08:41;;;;;;;13.63;7.95;;;;;;;;;;4953616;28;20118;-74
2021/12/05 04:11:12;;;;;;;14.32;8.00;;;;;;;;;;4983907;28;20423;-71
2021/12/05 04:13:41;;;;;;;13.75;8.07;;;;;;;;;;4983511;28;20509;-73
2021/12/05 04:16:08;;;;;;;16.17;8.18;;;;;;;;;;4984262;28;20062;-70
2021/12/05 04:18:35;;;;;;;15.95;8.02;;;;;;;;;;4983583;28;20122;-69
2021/12/05 04:21:03;;;;;;;14.73;8.13;;;;;;;;;;4951725;28;20074;-69
2021/12/05 04:23:29;;;;;;;14.40;7.93;;;;;;;;;;4953338;29;20442;-69
2021/12/05 04:25:55;;;;;;;16.38;7.80;;;;;;;;;;4983883;28;20046;-71
2021/12/05 04:28:23;;;;;;;13.43;7.75;;;;;;;;;;4967822;28;20078;-69
2021/12/05 04:30:51;;;;;;;12.10;6.90;;;;;;;;;;4967747;28;20572;-68
2021/12/05 04:33:21;;;;;;;13.15;7.78;;;;;;;;;;4983923;28;20513;-72
2021/12/05 04:35:48;;;;;;;13.38;8.00;;;;;;;;;;4983512;28;20031;-69
2021/12/05 04:38:14;;;;;;;13.52;7.95;;;;;;;;;;4952315;28;20047;-69
2021/12/05 04:40:41;;;;;;;13.38;7.85;;;;;;;;;;4951815;28;20414;-70
2021/12/05 04:43:08;;;;;;;14.02;7.55;;;;;;;;;;4951984;29;20050;-69
2021/12/05 04:45:35;;;;;;;18.00;8.25;;;;;;;;;;4987376;28;20093;-69
2021/12/05 04:48:05;;;;;;;17.50;9.38;;;;;;;;;;4970533;28;20030;-70
2021/12/05 04:50:32;;;;;;;13.98;8.57;;;;;;;;;;4971315;28;20030;-69
2021/12/05 04:52:59;;;;;;;18.73;8.75;;;;;;;;;;4972797;28;20031;-70
2021/12/05 04:55:26;;;;;;;17.60;9.27;;;;;;;;;;4971960;28;20026;-69
2021/12/05 04:57:53;;;;;;;17.27;9.18;;;;;;;;;;4970938;28;20046;-68
2021/12/05 05:00:26;;;;;;;16.80;8.60;;;;;;;;;;5003401;28;20393;-68
2021/12/05 05:02:52;;;;;;;14.70;9.50;;;;;;;;;;4971749;28;20371;-67
2021/12/05 05:05:18;;;;;;;15.50;8.80;;;;;;;;;;4972001;28;20268;-70
2021/12/05 05:07:45;;;;;;;15.80;8.38;;;;;;;;;;4972081;28;20034;-68
2021/12/05 05:10:18;;;;;;;15.68;9.63;;;;;;;;;;4971884;28;20023;-70
2021/12/05 05:12:44;;;;;;;15.43;8.75;;;;;;;;;;4972033;28;20039;-69
2021/12/05 05:15:11;;;;;;;15.70;9.02;;;;;;;;;;4971548;28;20105;-69
2021/12/05 05:17:39;;;;;;;22.98;9.68;;;;;;;;;;4951995;28;20039;-69
2021/12/05 05:20:09;;;;;;;19.55;9.48;;;;;;;;;;4951237;28;20067;-69
2021/12/05 05:22:46;;;;;;;19.77;8.82;;;;;;;;;;4953097;28;20058;-70
2021/12/05 05:49:19;;;;;;;13.52;7.53;;;;;;;;;;4948324;28;20091;-71
2021/12/05 05:51:45;;;;;;;16.48;8.00;;;;;;;;;;4936870;29;20411;-69
2021/12/05 05:54:11;;;;;;;17.27;8.75;;;;;;;;;;4936616;29;20075;-68
2021/12/05 05:56:40;;;;;;;20.10;8.77;;;;;;;;;;4936796;29;20522;-68
2021/12/05 05:59:54;;;;;;;15.35;8.40;;;;;;;;;;4936867;29;20063;-69
2021/12/05 06:04:26;;;;;;;13.25;8.32;;;;;;;;;;4936646;29;20032;-69
2021/12/05 06:06:51;;;;;;;13.98;8.23;;;;;;;;;;4967570;28;20094;-68
2021/12/05 06:09:18;;;;;;;18.08;9.35;;;;;;;;;;4936586;28;20051;-68
2021/12/05 06:11:44;;;;;;;18.60;8.48;;;;;;;;;;4936870;29;20020;-68
2021/12/05 06:14:10;;;;;;;13.10;7.57;;;;;;;;;;4936684;29;20038;-69
2021/12/05 06:16:36;;;;;;;15.52;7.57;;;;;;;;;;4967367;28;20127;-69
2021/12/05 06:19:02;;;;;;;19.65;8.10;;;;;;;;;;4936377;29;20059;-68
2021/12/05 06:21:27;;;;;;;11.45;7.05;;;;;;;;;;4950847;28;20077;-72
2021/12/05 06:23:53;;;;;;;12.70;8.18;;;;;;;;;;4974916;28;20548;-73
2021/12/05 06:26:23;;;;;;;13.52;7.60;;;;;;;;;;4975196;28;20355;-72
2021/12/05 06:29:01;;;;;;;14.13;7.63;;;;;;;;;;5005943;28;20047;-72
2021/12/05 06:47:12;;;;;;;13.25;6.80;;;;;;;;;;4974680;28;20166;-71
2021/12/05 06:49:40;;;;;;;13.15;6.85;;;;;;;;;;4974631;28;20018;-71
2021/12/05 06:52:07;;;;;;;14.57;7.95;;;;;;;;;;4949786;28;20035;-72
2021/12/05 06:54:35;;;;;;;12.82;7.95;;;;;;;;;;4935949;29;20031;-73
2021/12/05 06:57:01;;;;;;;13.10;7.53;;;;;;;;;;4935452;29;20487;-73
2021/12/05 06:59:27;;;;;;;13.35;8.13;;;;;;;;;;4935928;29;20039;-71
2021/12/05 07:01:52;;;;;;;14.13;7.75;;;;;;;;;;4935513;29;20047;-72
2021/12/05 07:04:50;;;;;;;11.65;7.05;;;;;;;;;;4966683;28;20027;-73
2021/12/05 07:07:23;;;;;;;14.32;6.88;;;;;;;;;;4936007;28;20403;-71
2021/12/05 07:09:50;;;;;;;12.43;6.35;;;;;;;;;;4935298;29;20095;-70
2021/12/05 07:15:05;;;;;;;14.10;6.47;;;;;;;;;;4936117;29;20040;-73
2021/12/05 07:22:55;;;;;;;10.10;5.72;;;;;;;;;;4938047;28;20039;-72
2021/12/05 07:25:29;;;;;;;11.63;6.55;;;;;;;;;;4968990;28;20490;-72
2021/12/05 07:44:05;;;;;;;8.55;5.03;;;;;;;;;;4953333;28;20078;-77
2021/12/05 07:46:31;;;;;;;9.35;5.47;;;;;;;;;;4960463;28;20026;-75
2021/12/05 07:48:57;;;;;;;12.48;5.80;;;;;;;;;;4956061;28;20038;-72
2021/12/05 07:51:28;;;;;;;10.88;5.43;;;;;;;;;;4963239;28;20402;-74
2021/12/05 08:15:42;;;;;;;13.60;7.05;;;;;;;;;;4973794;28;20121;-75
2021/12/05 08:18:07;;;;;;;;;;;;;;;;;;4974079;28;20035;-74
2021/12/05 08:20:37;;;;;;;13.50;7.50;;;;;;;;;;4973038;28;19914;-75
2021/12/05 08:23:04;;;;;;;13.65;7.35;;;;;;;;;;4973652;28;20398;-76
2021/12/05 08:25:34;;;;;;;12.93;7.05;;;;;;;;;;4973670;28;20696;-76
2021/12/05 08:28:58;;;;;;;12.55;6.68;;;;;;;;;;4972243;28;20513;-75
2021/12/05 08:31:13;;;;;;;11.80;7.07;;;;;;;;;;4982165;28;20054;-77
2021/12/05 08:34:00;;;;;;;10.32;6.72;;;;;;;;;;4972450;28;20046;-77
2021/12/05 08:37:00;;;;;;;9.93;6.90;;;;;;;;;;4973507;28;20074;-76
2021/12/05 08:45:11;;;;;;;11.70;6.97;;;;;;;;;;4973683;28;20509;-76
2021/12/05 09:29:22;;;;;;;12.05;7.32;;;;;;;;;;4989600;28;20046;-75
2021/12/05 09:40:27;;;;;;;14.95;7.68;;;;;;;;;;4955693;28;20047;-70
2021/12/05 10:15:30;;;;;;;15.77;9.43;;;;;;;;;;4960515;28;20023;-76
2021/12/05 11:02:35;;;;;;;26.40;14.70;;;;;;;;;;4797131;29;1584643;-74
2021/12/05 11:05:00;;;;;;;24.95;14.70;;;;;;;;;;4849637;29;20501;-73
2021/12/05 11:07:26;;;;;;;19.40;12.07;;;;;;;;;;4856945;29;20030;-75
2021/12/05 11:09:57;;;;;;;22.92;15.40;;;;;;;;;;4854559;29;20072;-73
2021/12/05 11:12:27;;;;;;;23.98;16.15;;;;;;;;;;4855956;29;20508;-74
2021/12/05 11:15:01;;;;;;;21.70;14.05;;;;;;;;;;4854504;29;20041;-72
2021/12/05 11:17:32;;;;;;;17.90;11.88;;;;;;;;;;4855499;29;20105;-73
2021/12/05 11:20:07;;;;;;;18.05;10.63;;;;;;;;;;4856015;29;20041;-75
2021/12/05 11:22:38;;;;;;;20.23;11.25;;;;;;;;;;4852895;29;20045;-73
2021/12/05 11:25:13;;;;;;;19.38;11.15;;;;;;;;;;4852283;29;20601;-70
2021/12/05 11:27:42;;;;;;;18.20;11.38;;;;;;;;;;4856166;29;20041;-70
2021/12/05 11:30:14;;;;;;;16.02;9.88;;;;;;;;;;4857713;29;20488;-70
2021/12/05 11:32:50;;;;;;;18.42;11.00;;;;;;;;;;4858182;29;20056;-71
2021/12/05 11:35:29;;;;;;;18.75;10.48;;;;;;;;;;4856167;29;20069;-71
2021/12/05 11:38:06;;;;;;;16.30;10.38;;;;;;;;;;4859190;29;20044;-70
2021/12/05 11:40:53;;;;;;;63.33;32.97;;;;;;;;;;4853552;29;20037;-69
2021/12/05 11:43:24;;;;;;;24.23;12.27;;;;;;;;;;4851446;29;20038;-73
2021/12/05 11:45:52;;;;;;;24.38;11.98;;;;;;;;;;4850584;29;20128;-74
2021/12/05 11:48:26;;;;;;;20.25;13.25;;;;;;;;;;4858631;29;20021;-71
2021/12/05 11:50:51;;;;;;;20.13;13.30;;;;;;;;;;4858608;29;20030;-71
2021/12/05 11:53:37;;;;;;;16.95;11.15;;;;;;;;;;4860434;29;20047;-70
2021/12/05 11:56:03;;;;;;;22.98;14.70;;;;;;;;;;4877276;29;20035;-68
2021/12/05 12:02:21;;;;;;;20.73;10.65;;;;;;;;;;4179548;29;20073;-71
2021/12/05 12:05:22;;;;;;;27.67;16.27;;;;;;;;;;4868658;29;20321;-72
2021/12/05 12:08:07;;;;;;;38.90;20.05;;;;;;;;;;4830019;29;20440;-71
2021/12/05 12:10:41;;;;;;;22.13;12.52;;;;;;;;;;4841100;29;20042;-70
2021/12/05 12:13:12;;;;;;;17.48;10.85;;;;;;;;;;4840720;29;20557;-73
2021/12/05 12:15:42;;;;;;;15.57;9.82;;;;;;;;;;4839804;29;20034;-72
2021/12/05 12:18:17;;;;;;;88.55;39.78;;;;;;;;;;4840651;29;20077;-72
2021/12/05 12:20:47;;;;;;;144.48;63.17;;;;;;;;;;4839522;29;20049;-70
2021/12/05 12:23:15;;;;;;;76.13;35.72;;;;;;;;;;4833826;29;20113;-69
2021/12/05 12:25:42;;;;;;;75.05;34.88;;;;;;;;;;4840810;29;20519;-68
2021/12/05 12:28:10;;;;;;;51.90;28.67;;;;;;;;;;4835142;29;20026;-72
2021/12/05 12:30:39;;;;;;;38.95;21.92;;;;;;;;;;4823047;29;20042;-72
2021/12/05 12:33:18;;;;;;;21.52;13.93;;;;;;;;;;4836054;29;20074;-73
2021/12/05 12:35:46;;;;;;;19.42;12.57;;;;;;;;;;4837777;29;20417;-71
2021/12/05 12:38:17;;;;;;;17.40;11.40;;;;;;;;;;4843598;29;20026;-70
2021/12/05 12:40:45;;;;;;;18.50;11.80;;;;;;;;;;4843589;29;20048;-69
2021/12/05 12:43:41;;;;;;;19.88;12.25;;;;;;;;;;4841663;29;20113;-69
2021/12/05 12:46:29;;;;;;;28.63;16.13;;;;;;;;;;4853505;29;20049;-70
2021/12/05 12:49:16;;;;;;;28.00;15.88;;;;;;;;;;4860952;29;20078;-73
2021/12/05 12:51:43;;;;;;;30.60;18.15;;;;;;;;;;4835706;29;20050;-71
2021/12/05 12:54:17;;;;;;;24.98;14.20;;;;;;;;;;4842878;29;20038;-70
2021/12/05 12:57:00;;;;;;;21.92;12.80;;;;;;;;;;4842279;29;20181;-70
2021/12/05 12:59:30;;;;;;;21.95;14.10;;;;;;;;;;4849830;29;20029;-70
2021/12/05 13:02:56;;;;;;;19.85;13.45;;;;;;;;;;4863180;29;20052;-73
2021/12/05 13:10:05;;;;;;;23.42;15.60;;;;;;;;;;4863062;29;20025;-76
2021/12/05 13:12:41;;;;;;;21.98;13.13;;;;;;;;;;4861670;29;20489;-76
2021/12/05 13:15:11;;;;;;;23.27;13.20;;;;;;;;;;4862720;29;20030;-77
2021/12/05 13:17:43;;;;;;;21.95;15.18;;;;;;;;;;4837351;29;20081;-76
2021/12/05 13:20:12;;;;;;;24.38;15.20;;;;;;;;;;4843919;29;20061;-75
2021/12/05 13:23:11;;;;;;;26.77;14.75;;;;;;;;;;4850921;29;20026;-74
2021/12/05 13:25:59;;;;;;;26.65;16.63;;;;;;;;;;4862447;29;20037;-70
2021/12/05 13:28:32;;;;;;;25.27;15.88;;;;;;;;;;4847005;29;20046;-69
2021/12/05 13:30:58;;;;;;;;;;;;;;;;;;4844675;29;20030;-70
2021/12/05 13:33:28;;;;;;;23.38;13.30;;;;;;;;;;4842965;29;20398;-72
2021/12/05 13:35:58;;;;;;;24.20;17.02;;;;;;;;;;4841357;29;20098;-70
2021/12/05 13:38:34;;;;;;;24.38;15.82;;;;;;;;;;4844241;29;20038;-68
2021/12/05 13:41:16;;;;;;;26.80;17.42;;;;;;;;;;4844279;29;20493;-72
2021/12/05 13:43:54;;;;;;;26.27;17.38;;;;;;;;;;4838534;29;20038;-69
2021/12/05 13:46:38;;;;;;;33.08;19.85;;;;;;;;;;4834864;29;20056;-70
2021/12/05 13:49:35;;;;;;;33.03;21.02;;;;;;;;;;4834403;29;20069;-70
2021/12/05 13:52:35;;;;;;;33.50;19.48;;;;;;;;;;4830861;29;20602;-70
2021/12/05 13:55:30;;;;;;;27.30;18.88;;;;;;;;;;4830578;29;20034;-70
2021/12/05 13:58:24;;;;;;;26.65;17.50;;;;;;;;;;4829467;29;20054;-71
2021/12/05 14:01:15;;;;;;;32.33;20.23;;;;;;;;;;4835110;29;20533;-70
2021/12/05 14:03:48;;;;;;;35.17;21.85;;;;;;;;;;4841039;29;20505;-69
2021/12/05 14:06:30;;;;;;;33.47;20.17;;;;;;;;;;4842840;29;20061;-70
2021/12/05 14:09:17;;;;;;;40.28;21.38;;;;;;;;;;4842958;29;20483;-69
2021/12/05 14:11:45;;;;;;;40.88;23.63;;;;;;;;;;4856882;29;20034;-70
2021/12/05 14:14:11;;;;;;;31.08;20.00;;;;;;;;;;4840007;29;20549;-70
2021/12/05 14:16:44;;;;;;;33.88;20.80;;;;;;;;;;4838651;29;20391;-71
2021/12/05 14:19:13;;;;;;;35.65;20.98;;;;;;;;;;4833556;29;20040;-70
2021/12/05 14:21:41;;;;;;;30.75;19.23;;;;;;;;;;4831539;29;20053;-70
2021/12/05 14:24:08;;;;;;;30.45;18.67;;;;;;;;;;4832585;29;20037;-70
2021/12/05 14:26:39;;;;;;;29.85;17.23;;;;;;;;;;4830095;29;20042;-71
2021/12/05 14:29:12;;;;;;;27.65;16.98;;;;;;;;;;4839704;29;20035;-70
2021/12/05 14:31:42;;;;;;;35.55;18.35;;;;;;;;;;4833356;29;20052;-71
2021/12/05 14:34:11;;;;;;;28.02;17.20;;;;;;;;;;4825069;29;20057;-70
2021/12/05 14:36:46;;;;;;;27.25;17.52;;;;;;;;;;4833117;29;20048;-70
2021/12/05 14:39:22;;;;;;;26.38;15.90;;;;;;;;;;4823818;29;20030;-70
2021/12/05 14:41:51;;;;;;;29.23;17.88;;;;;;;;;;4832604;29;20041;-71
2021/12/05 14:44:18;;;;;;;26.58;17.58;;;;;;;;;;4843048;29;20537;-69
2021/12/05 14:46:53;;;;;;;28.38;17.95;;;;;;;;;;4843101;29;20520;-69
2021/12/05 14:49:21;;;;;;;26.73;16.10;;;;;;;;;;4856078;29;20672;-69
2021/12/05 14:51:48;;;;;;;29.42;16.88;;;;;;;;;;4839920;29;20046;-71
2021/12/05 14:54:21;;;;;;;26.23;15.73;;;;;;;;;;4834674;29;20042;-71
2021/12/05 14:56:46;;;;;;;26.50;15.48;;;;;;;;;;4841818;29;20516;-71
2021/12/05 14:59:14;;;;;;;29.88;16.90;;;;;;;;;;4842789;29;20030;-70
2021/12/05 15:01:42;;;;;;;26.15;16.98;;;;;;;;;;4842437;29;21013;-72
2021/12/05 15:04:10;;;;;;;30.10;19.40;;;;;;;;;;4842385;29;20041;-72
2021/12/05 15:06:41;;;;;;;25.00;15.95;;;;;;;;;;4842059;29;20050;-72
2021/12/05 15:09:18;;;;;;;25.40;16.95;;;;;;;;;;4842210;29;20033;-73
2021/12/05 15:12:16;;;;;;;30.00;18.55;;;;;;;;;;4842688;29;20042;-70
2021/12/05 15:14:46;;;;;;;28.92;17.65;;;;;;;;;;4842361;29;20053;-70
2021/12/05 15:17:13;;;;;;;29.42;17.15;;;;;;;;;;4842376;29;20054;-71
2021/12/05 15:19:43;;;;;;;30.02;17.90;;;;;;;;;;4842448;29;20030;-71
2021/12/05 15:22:12;;;;;;;37.13;20.60;;;;;;;;;;4839586;29;20038;-70
2021/12/05 15:24:39;;;;;;;33.67;20.92;;;;;;;;;;4835444;29;20029;-70
2021/12/05 15:27:12;;;;;;;31.45;19.73;;;;;;;;;;4842211;29;20473;-70
2021/12/05 15:29:43;;;;;;;31.60;20.40;;;;;;;;;;4841392;29;20034;-68
2021/12/05 15:32:16;;;;;;;34.90;21.35;;;;;;;;;;4841311;29;20090;-69
2021/12/05 15:34:41;;;;;;;30.40;19.40;;;;;;;;;;4841431;29;20042;-70
2021/12/05 15:37:10;;;;;;;25.33;16.88;;;;;;;;;;4841370;29;20097;-69
2021/12/05 15:39:42;;;;;;;32.10;17.70;;;;;;;;;;4855245;29;20142;-70
2021/12/05 15:42:20;;;;;;;30.88;18.67;;;;;;;;;;4841108;29;20040;-70
2021/12/05 15:44:47;;;;;;;33.10;18.48;;;;;;;;;;4842069;29;20042;-74
2021/12/05 15:47:29;;;;;;;33.83;20.58;;;;;;;;;;4841726;29;20458;-73
2021/12/05 15:50:10;;;;;;;31.05;17.92;;;;;;;;;;4841988;29;20124;-72
2021/12/05 15:52:42;;;;;;;31.30;17.08;;;;;;;;;;4839148;29;20363;-72
2021/12/05 15:55:13;;;;;;;32.05;16.48;;;;;;;;;;4833448;29;20038;-74
2021/12/05 15:57:42;;;;;;;32.20;16.58;;;;;;;;;;4835655;29;20544;-71
2021/12/05 16:00:22;;;;;;;40.50;17.95;;;;;;;;;;4826935;29;20034;-73
2021/12/05 16:03:00;;;;;;;25.25;15.93;;;;;;;;;;4833753;29;20094;-71
2021/12/05 16:05:26;;;;;;;38.67;20.77;;;;;;;;;;4841588;29;20129;-69
2021/12/05 16:07:51;;;;;;;40.05;18.58;;;;;;;;;;4841353;29;20136;-69
2021/12/05 16:10:23;;;;;;;33.30;18.20;;;;;;;;;;4841326;29;20370;-68
2021/12/05 16:12:52;;;;;;;37.38;19.30;;;;;;;;;;4835912;29;20033;-67
2021/12/05 16:15:24;;;;;;;27.60;17.48;;;;;;;;;;4830820;29;20030;-68
2021/12/05 16:17:59;;;;;;;34.05;19.27;;;;;;;;;;4829848;29;20070;-70
2021/12/05 16:20:28;;;;;;;35.72;20.05;;;;;;;;;;4831417;29;20034;-66
2021/12/05 16:23:00;;;;;;;34.47;19.95;;;;;;;;;;4832020;29;20090;-67
2021/12/05 16:25:27;;;;;;;26.08;16.20;;;;;;;;;;4831847;29;20625;-67
2021/12/05 16:27:56;;;;;;;35.55;19.67;;;;;;;;;;4830279;29;20030;-67
2021/12/05 16:30:30;;;;;;;38.38;21.15;;;;;;;;;;4831381;29;20112;-69
2021/12/05 16:32:56;;;;;;;39.25;19.55;;;;;;;;;;4832027;29;20117;-70
2021/12/05 16:35:29;;;;;;;34.88;17.60;;;;;;;;;;4831886;29;20030;-68
2021/12/05 16:37:56;;;;;;;25.52;14.85;;;;;;;;;;4830301;29;20057;-72
2021/12/05 16:40:21;;;;;;;32.00;16.08;;;;;;;;;;4831571;29;20041;-68
2021/12/05 16:42:47;;;;;;;23.42;15.15;;;;;;;;;;4832027;29;20034;-68
2021/12/05 16:45:16;;;;;;;37.88;18.05;;;;;;;;;;4829228;29;20398;-70
2021/12/05 16:47:44;;;;;;;27.73;16.98;;;;;;;;;;4831244;29;20056;-70
2021/12/05 16:50:13;;;;;;;28.35;16.20;;;;;;;;;;4832030;29;20064;-67
2021/12/05 16:52:51;;;;;;;27.52;15.20;;;;;;;;;;4832634;29;20061;-68
2021/12/05 16:55:27;;;;;;;27.10;15.82;;;;;;;;;;4828465;29;20039;-66
2021/12/05 16:57:59;;;;;;;22.23;14.40;;;;;;;;;;4831018;29;20498;-66
2021/12/05 17:00:28;;;;;;;30.15;17.48;;;;;;;;;;4830323;29;20034;-69
2021/12/05 17:02:58;;;;;;;34.13;17.98;;;;;;;;;;4831462;29;20135;-65
2021/12/05 17:05:28;;;;;;;26.40;15.93;;;;;;;;;;4831509;29;20057;-71
2021/12/05 17:08:07;;;;;;;30.08;16.13;;;;;;;;;;4831802;29;20034;-73
2021/12/05 17:10:51;;;;;;;27.17;14.30;;;;;;;;;;4831066;29;20106;-71
2021/12/05 17:13:22;;;;;;;;;;;;;;;;;;4830383;29;20379;-70
2021/12/05 17:16:08;;;;;;;22.38;13.05;;;;;;;;;;4837682;29;19925;-68
2021/12/05 17:18:57;;;;;;;23.10;13.95;;;;;;;;;;4822387;29;20066;-70
2021/12/05 17:21:23;;;;;;;25.20;15.00;;;;;;;;;;4835919;29;20121;-69
2021/12/05 17:23:53;;;;;;;23.50;14.32;;;;;;;;;;4826712;29;20105;-68
2021/12/05 17:26:27;;;;;;;27.77;15.55;;;;;;;;;;4840344;29;20063;-69
2021/12/05 17:28:56;;;;;;;24.45;16.33;;;;;;;;;;4842543;29;20119;-68
2021/12/05 17:31:45;;;;;;;35.45;20.35;;;;;;;;;;4843680;29;20106;-67
2021/12/05 17:34:17;;;;;;;34.30;22.38;;;;;;;;;;4840903;29;20040;-70
2021/12/05 17:36:50;;;;;;;34.30;20.90;;;;;;;;;;4841833;29;20041;-69
2021/12/05 17:39:19;;;;;;;34.00;20.98;;;;;;;;;;4842026;29;20038;-72
2021/12/05 17:41:48;;;;;;;31.70;19.30;;;;;;;;;;4842228;29;20382;-71
2021/12/05 17:44:18;;;;;;;27.38;19.20;;;;;;;;;;4841993;29;20042;-68
2021/12/05 17:46:45;;;;;;;32.75;19.33;;;;;;;;;;4841217;29;20042;-67
2021/12/05 17:49:15;;;;;;;33.97;18.73;;;;;;;;;;4841427;29;20595;-72
2021/12/05 17:51:42;;;;;;;28.88;16.65;;;;;;;;;;4842848;29;20034;-71
2021/12/05 17:54:16;;;;;;;30.38;18.75;;;;;;;;;;4842139;29;20128;-69
2021/12/05 17:56:49;;;;;;;29.98;18.17;;;;;;;;;;4828434;29;21474;-70
2021/12/05 17:59:29;;;;;;;30.65;17.30;;;;;;;;;;4840480;29;20040;-67
2021/12/05 18:04:43;;;;;;;27.75;16.17;;;;;;;;;;4832979;29;20133;-72
2021/12/05 18:07:10;;;;;;;28.15;18.15;;;;;;;;;;4849607;29;20041;-67
2021/12/05 18:09:36;;;;;;;26.05;17.13;;;;;;;;;;4843974;29;20130;-66
2021/12/05 18:12:05;;;;;;;31.80;17.63;;;;;;;;;;4840563;29;20029;-71
2021/12/05 18:14:31;;;;;;;45.22;25.65;;;;;;;;;;4839945;29;20434;-72
2021/12/05 18:16:57;;;;;;;37.35;22.20;;;;;;;;;;4842807;29;20113;-69
2021/12/05 18:19:23;;;;;;;33.90;22.45;;;;;;;;;;4856464;29;20508;-69
2021/12/05 18:21:50;;;;;;;37.58;23.35;;;;;;;;;;4833015;29;20133;-71
2021/12/05 18:24:18;;;;;;;46.45;23.20;;;;;;;;;;4826930;29;20042;-68
2021/12/05 18:26:44;;;;;;;35.22;22.20;;;;;;;;;;4823943;29;20049;-70
2021/12/05 18:29:15;;;;;;;37.35;22.13;;;;;;;;;;4823513;29;20042;-70
2021/12/05 18:31:41;;;;;;;37.28;20.92;;;;;;;;;;4836911;29;20041;-71
2021/12/05 18:34:19;;;;;;;36.97;21.58;;;;;;;;;;4841337;29;20061;-71
2021/12/05 18:36:46;;;;;;;39.08;23.45;;;;;;;;;;4842005;29;20046;-67
2021/12/05 18:39:21;;;;;;;43.17;22.05;;;;;;;;;;4839094;29;20440;-66
2021/12/05 18:41:48;;;;;;;37.03;20.02;;;;;;;;;;4831465;29;20393;-68
2021/12/05 18:44:18;;;;;;;33.38;20.58;;;;;;;;;;4841545;29;20026;-66
2021/12/05 18:46:45;;;;;;;31.52;19.15;;;;;;;;;;4841954;29;20045;-65
2021/12/05 18:49:11;;;;;;;34.50;20.08;;;;;;;;;;4840810;29;20081;-72
2021/12/05 18:51:37;;;;;;;35.92;20.08;;;;;;;;;;4839622;29;20033;-67
2021/12/05 18:54:04;;;;;;;37.90;21.88;;;;;;;;;;4823943;29;20054;-70
2021/12/05 18:56:30;;;;;;;39.65;20.08;;;;;;;;;;4822367;29;20393;-67
2021/12/05 18:58:55;;;;;;;37.50;20.83;;;;;;;;;;4835562;29;20040;-67
2021/12/05 19:05:10;;;;;;;39.72;21.40;;;;;;;;;;4837084;29;20137;-69
2021/12/05 19:07:13;;;;;;;46.55;22.10;;;;;;;;;;4833764;29;20054;-71
2021/12/05 19:12:07;;;;;;;40.42;21.85;;;;;;;;;;4836361;29;20037;-65
2021/12/05 19:14:45;;;;;;;38.10;20.95;;;;;;;;;;4835232;29;20042;-68
2021/12/05 19:17:15;;;;;;;38.00;21.17;;;;;;;;;;4832954;29;20077;-71
2021/12/05 19:19:44;;;;;;;44.63;23.20;;;;;;;;;;4840158;29;20037;-72
2021/12/05 19:22:23;;;;;;;58.97;27.60;;;;;;;;;;4835129;29;20034;-71
2021/12/05 19:24:50;;;;;;;46.60;26.45;;;;;;;;;;4836415;29;20038;-69
2021/12/05 19:27:16;;;;;;;51.47;26.95;;;;;;;;;;4836626;29;20042;-73
2021/12/05 19:29:44;;;;;;;56.78;29.55;;;;;;;;;;4838909;29;20040;-64
2021/12/05 19:32:10;;;;;;;47.47;26.58;;;;;;;;;;4871765;29;20164;-68
2021/12/05 19:34:36;;;;;;;46.53;25.45;;;;;;;;;;4869594;29;20041;-68
2021/12/05 19:37:05;;;;;;;96.07;31.50;;;;;;;;;;4877103;29;20137;-66
2021/12/05 19:39:33;;;;;;;54.70;28.38;;;;;;;;;;4858954;29;20042;-67
2021/12/05 19:42:00;;;;;;;142.25;37.88;;;;;;;;;;4859455;29;20040;-70
2021/12/05 19:44:29;;;;;;;202.15;41.65;;;;;;;;;;4859045;29;20052;-67
2021/12/05 19:46:58;;;;;;;112.80;42.58;;;;;;;;;;4871871;29;20421;-70
2021/12/05 19:49:25;;;;;;;105.40;38.35;;;;;;;;;;4859485;29;20449;-67
2021/12/05 19:51:51;;;;;;;84.20;36.80;;;;;;;;;;4864566;29;20089;-71
2021/12/05 19:54:18;;;;;;;81.07;33.65;;;;;;;;;;4868130;29;20370;-71
2021/12/05 19:56:45;;;;;;;122.45;33.05;;;;;;;;;;4874249;29;20097;-72
2021/12/05 19:59:14;;;;;;;133.15;31.27;;;;;;;;;;4873972;29;20033;-72
2021/12/05 20:01:43;;;;;;;155.75;32.55;;;;;;;;;;4867611;29;20096;-71
2021/12/05 20:04:09;;;;;;;129.27;35.60;;;;;;;;;;4874990;29;20043;-70
2021/12/05 20:06:36;;;;;;;68.60;31.02;;;;;;;;;;4872313;29;20075;-70
2021/12/05 20:09:07;;;;;;;56.25;29.20;;;;;;;;;;4867647;29;20073;-68
2021/12/05 20:11:35;;;;;;;137.68;32.95;;;;;;;;;;4874628;29;20033;-70
2021/12/05 20:14:01;;;;;;;297.65;32.40;;;;;;;;;;4878197;29;20064;-69
2021/12/05 20:16:28;;;;;;;81.03;27.73;;;;;;;;;;4877352;29;20496;-67
2021/12/05 20:18:55;;;;;;;218.52;26.30;;;;;;;;;;4877780;29;20067;-69
2021/12/05 20:21:22;;;;;;;136.40;38.00;;;;;;;;;;4877841;29;20580;-67
2021/12/05 20:23:47;;;;;;;111.05;39.15;;;;;;;;;;4877326;29;20029;-66
2021/12/05 20:26:19;;;;;;;81.88;29.95;;;;;;;;;;4877507;29;20124;-69
2021/12/05 20:28:47;;;;;;;102.78;31.85;;;;;;;;;;4876697;29;20120;-67
2021/12/05 20:31:14;;;;;;;168.73;31.38;;;;;;;;;;4867402;29;20034;-66
2021/12/05 20:33:40;;;;;;;163.88;27.88;;;;;;;;;;4870970;29;20044;-67
2021/12/05 20:36:08;;;;;;;58.22;22.95;;;;;;;;;;4868499;29;20116;-65
2021/12/05 20:38:35;;;;;;;125.18;27.50;;;;;;;;;;4868295;29;20531;-66
2021/12/05 20:41:01;;;;;;;143.20;32.00;;;;;;;;;;4868767;29;20025;-66
2021/12/05 20:43:28;;;;;;;136.85;30.70;;;;;;;;;;4866320;29;20092;-70
2021/12/05 20:45:58;;;;;;;135.55;27.90;;;;;;;;;;4868960;29;20021;-69
2021/12/05 20:48:26;;;;;;;59.90;28.42;;;;;;;;;;4868868;29;20041;-70
2021/12/05 20:50:52;;;;;;;106.57;35.33;;;;;;;;;;4867904;29;20067;-67
2021/12/05 20:53:20;;;;;;;88.35;30.50;;;;;;;;;;4867971;29;20033;-71
2021/12/05 20:55:46;;;;;;;86.60;31.05;;;;;;;;;;4871864;29;20029;-70
2021/12/05 20:58:13;;;;;;;124.22;31.85;;;;;;;;;;4871759;29;20040;-70